Time;durP1;ratioP1;P1;durP2;ratioP2;P2;SDS_P1;SDS_P2;PMS_P1;PMS_P2;Temp;Humidity;BMP_temperature;BMP_pressure;BME280_temperature;BME280_humidity;BME280_pressure;Samples;Min_cycle;Max_cycle;Signal;HPM_P1;HPM_P2
2021/04/21 00:00:00;;;;;;;;;;;16.60;58.00;;;;;;1040099;28;20896;-75
2021/04/21 00:00:32;;;;;;;;;;;16.60;58.20;;;;;;1041282;28;19924;-75
2021/04/21 00:01:04;;;;;;;;;;;16.60;58.20;;;;;;1043553;28;19916;-75
2021/04/21 00:01:38;;;;;;;;;;;16.60;58.30;;;;;;1047459;28;19912;-76
2021/04/21 00:02:09;;;;;;;;;;;16.60;58.10;;;;;;1049085;28;19904;-76
2021/04/21 00:02:42;;;;;;;;;;;16.50;58.40;;;;;;1047713;28;19909;-75
2021/04/21 00:03:14;;;;;;;;;;;16.50;58.60;;;;;;1049544;28;19905;-75
2021/04/21 00:03:46;;;;;;;;;;;16.50;58.40;;;;;;1046417;28;19923;-75
2021/04/21 00:04:17;;;;;;;;;;;16.50;58.30;;;;;;1049511;28;19920;-75
2021/04/21 00:04:50;;;;;;;;;;;16.50;58.50;;;;;;1053195;28;19946;-75
2021/04/21 00:05:22;;;;;;;;;;;16.40;58.60;;;;;;1050347;28;19908;-75
2021/04/21 00:05:53;;;;;;;;;;;16.40;58.80;;;;;;1052329;28;20356;-76
2021/04/21 00:06:27;;;;;;;;;;;16.40;58.80;;;;;;1045711;28;19909;-75
2021/04/21 00:06:59;;;;;;;;;;;16.40;58.50;;;;;;1045325;28;19962;-76
2021/04/21 00:07:31;;;;;;;;;;;16.30;58.70;;;;;;1045226;28;20335;-76
2021/04/21 00:08:02;;;;;;;;;;;16.30;58.90;;;;;;1045624;28;20334;-75
2021/04/21 00:08:33;;;;;;;;;;;16.30;58.90;;;;;;1045560;28;19909;-76
2021/04/21 00:09:05;;;;;;;;;;;16.20;58.90;;;;;;1045784;28;20011;-76
2021/04/21 00:09:37;;;;;;;;;;;16.20;58.80;;;;;;1045513;28;19909;-75
2021/04/21 00:10:09;;;;;;;;;;;16.20;58.80;;;;;;1045483;28;19927;-74
2021/04/21 00:10:40;;;;;;;;;;;16.20;59.10;;;;;;1045130;28;19919;-75
2021/04/21 00:11:11;;;;;;;;;;;16.10;59.20;;;;;;1045546;28;20007;-74
2021/04/21 00:11:43;;;;;;;;;;;16.10;59.50;;;;;;1041171;28;19914;-75
2021/04/21 00:12:15;;;;;;;;;;;16.10;59.60;;;;;;1041737;28;19910;-75
2021/04/21 00:12:48;;;;;;;;;;;16.10;59.70;;;;;;1050449;28;20031;-75
2021/04/21 00:13:20;;;;;;;;;;;16.10;59.80;;;;;;1049381;28;19915;-75
2021/04/21 00:13:51;;;;;;;;;;;16.10;59.80;;;;;;1050165;28;20628;-75
2021/04/21 00:14:23;;;;;;;;;;;16.10;59.80;;;;;;1045564;28;19955;-75
2021/04/21 00:14:54;;;;;;;;;;;16.00;60.00;;;;;;1045271;28;19995;-75
2021/04/21 00:15:26;;;;;;;;;;;15.90;60.30;;;;;;1043699;28;19905;-75
2021/04/21 00:15:57;;;;;;;;;;;15.90;60.40;;;;;;1041906;28;19916;-75
2021/04/21 00:16:28;;;;;;;;;;;15.80;60.40;;;;;;1049478;28;19962;-75
2021/04/21 00:17:00;;;;;;;;;;;15.80;60.70;;;;;;1045385;28;19939;-73
2021/04/21 00:17:31;;;;;;;;;;;15.70;60.90;;;;;;1045307;28;20242;-76
2021/04/21 00:18:04;;;;;;;;;;;15.70;61.00;;;;;;1044837;28;19905;-77
2021/04/21 00:18:36;;;;;;;;;;;15.70;61.00;;;;;;1040966;28;19999;-77
2021/04/21 00:19:09;;;;;;;;;;;15.70;61.20;;;;;;1042109;28;19916;-77
2021/04/21 00:19:41;;;;;;;;;;;15.60;61.20;;;;;;1041284;28;20228;-78
2021/04/21 00:20:13;;;;;;;;;;;15.60;61.40;;;;;;1041310;28;19967;-78
2021/04/21 00:20:47;;;;;;;;;;;15.60;61.80;;;;;;1041875;28;20268;-77
2021/04/21 00:21:19;;;;;;;;;;;15.60;61.60;;;;;;1045612;28;19905;-77
2021/04/21 00:21:51;;;;;;;;;;;15.60;61.60;;;;;;1041825;28;19905;-78
2021/04/21 00:22:23;;;;;;;;;;;15.60;61.50;;;;;;1043786;28;19949;-78
2021/04/21 00:22:57;;;;;;;;;;;15.50;61.50;;;;;;1047762;28;19964;-78
2021/04/21 00:23:31;;;;;;;;;;;15.50;61.70;;;;;;1046432;28;19968;-78
2021/04/21 00:24:03;;;;;;;;;;;15.50;62.00;;;;;;1049655;28;19905;-75
2021/04/21 00:24:36;;;;;;;;;;;15.40;62.30;;;;;;1046074;28;20298;-75
2021/04/21 00:25:08;;;;;;;;;;;15.40;62.60;;;;;;1045397;28;19915;-75
2021/04/21 00:25:40;;;;;;;;;;;15.50;62.80;;;;;;1049898;28;20023;-75
2021/04/21 00:26:15;;;;;;;;;;;15.50;62.60;;;;;;1054429;28;19916;-75
2021/04/21 00:26:47;;;;;;;;;;;15.50;62.50;;;;;;1053121;28;20272;-75
2021/04/21 00:27:20;;;;;;;;;;;15.60;62.20;;;;;;1044976;28;19909;-75
2021/04/21 00:27:52;;;;;;;;;;;15.60;61.90;;;;;;1049363;28;19909;-75
2021/04/21 00:28:33;;;;;;;;;;;15.60;61.60;;;;;;1048727;28;19908;-76
2021/04/21 00:29:05;;;;;;;;;;;15.50;61.70;;;;;;1047417;28;19963;-75
2021/04/21 00:29:38;;;;;;;;;;;15.60;61.80;;;;;;1044684;28;19959;-75
2021/04/21 00:30:10;;;;;;;;;;;15.50;62.00;;;;;;1037117;28;19992;-75
2021/04/21 00:30:43;;;;;;;;;;;15.50;62.30;;;;;;1039532;28;19906;-75
2021/04/21 00:31:15;;;;;;;;;;;15.50;62.30;;;;;;1041249;28;19909;-75
2021/04/21 00:31:47;;;;;;;;;;;15.40;62.20;;;;;;1041416;28;20345;-75
2021/04/21 00:32:19;;;;;;;;;;;15.40;62.30;;;;;;1045498;28;19908;-75
2021/04/21 00:32:51;;;;;;;;;;;15.40;62.40;;;;;;1045631;28;20243;-76
2021/04/21 00:33:23;;;;;;;;;;;15.40;62.50;;;;;;1045614;28;19951;-75
2021/04/21 00:33:55;;;;;;;;;;;15.40;62.50;;;;;;1045607;28;19991;-75
2021/04/21 00:34:28;;;;;;;;;;;15.40;62.60;;;;;;1045746;28;19908;-75
2021/04/21 00:34:59;;;;;;;;;;;15.40;62.60;;;;;;1045539;28;19909;-75
2021/04/21 00:35:30;;;;;;;;;;;15.50;62.60;;;;;;1045277;28;19917;-75
2021/04/21 00:36:04;;;;;;;;;;;15.50;62.30;;;;;;1049434;28;20342;-75
2021/04/21 00:36:37;;;;;;;;;;;15.50;62.20;;;;;;1051854;28;19909;-75
2021/04/21 00:37:09;;;;;;;;;;;15.50;62.10;;;;;;1054699;28;19919;-74
2021/04/21 00:37:42;;;;;;;;;;;15.60;62.00;;;;;;1053257;28;19918;-74
2021/04/21 00:38:13;;;;;;;;;;;15.60;61.70;;;;;;1053438;28;20034;-74
2021/04/21 00:38:46;;;;;;;;;;;15.60;61.70;;;;;;1053759;28;19920;-74
2021/04/21 00:39:19;;;;;;;;;;;15.60;61.80;;;;;;1049262;28;19908;-75
2021/04/21 00:39:50;;;;;;;;;;;15.60;61.80;;;;;;1047653;28;19920;-75
2021/04/21 00:40:25;;;;;;;;;;;15.50;62.00;;;;;;1049403;28;19909;-76
2021/04/21 00:41:21;;;;;;;;;;;15.50;62.00;;;;;;1046389;28;19913;-75
2021/04/21 00:42:04;;;;;;;;;;;15.50;62.20;;;;;;1040789;28;20059;-74
2021/04/21 00:42:44;;;;;;;;;;;15.50;62.30;;;;;;1036710;28;20001;-74
2021/04/21 00:43:18;;;;;;;;;;;15.50;62.20;;;;;;1045258;28;19913;-76
2021/04/21 00:43:52;;;;;;;;;;;15.40;62.30;;;;;;1046807;28;19999;-75
2021/04/21 00:44:23;;;;;;;;;;;15.40;62.40;;;;;;1044386;28;19913;-75
2021/04/21 00:45:01;;;;;;;;;;;15.40;62.30;;;;;;1045311;28;19912;-75
2021/04/21 00:45:36;;;;;;;;;;;15.30;63.00;;;;;;1049293;28;20327;-75
2021/04/21 00:46:17;;;;;;;;;;;15.30;62.50;;;;;;1042929;28;20001;-75
2021/04/21 00:46:50;;;;;;;;;;;15.30;62.50;;;;;;1041099;28;19909;-75
2021/04/21 00:47:32;;;;;;;;;;;15.30;62.60;;;;;;1040574;28;19910;-75
2021/04/21 00:48:09;;;;;;;;;;;15.30;62.30;;;;;;1044018;28;19912;-75
2021/04/21 00:49:02;;;;;;;;;;;15.30;62.30;;;;;;1048105;28;19923;-75
2021/04/21 00:49:50;;;;;;;;;;;15.20;62.20;;;;;;1052416;28;20270;-74
2021/04/21 00:50:26;;;;;;;;;;;15.10;62.30;;;;;;1047006;28;19921;-75
2021/04/21 00:51:00;;;;;;;;;;;15.20;62.40;;;;;;1047980;28;19950;-75
2021/04/21 00:51:48;;;;;;;;;;;15.10;62.30;;;;;;1046343;28;19924;-74
2021/04/21 00:52:34;;;;;;;;;;;15.10;62.40;;;;;;1049051;28;19923;-77
2021/04/21 00:53:17;;;;;;;;;;;15.10;62.30;;;;;;1045093;28;20009;-74
2021/04/21 00:53:51;;;;;;;;;;;15.10;62.60;;;;;;1044433;28;19995;-75
2021/04/21 00:54:42;;;;;;;;;;;15.00;62.90;;;;;;1045008;28;20227;-76
2021/04/21 00:55:22;;;;;;;;;;;14.90;63.10;;;;;;1039611;28;19920;-76
2021/04/21 00:56:16;;;;;;;;;;;14.80;63.40;;;;;;1041049;28;19950;-76
2021/04/21 00:56:52;;;;;;;;;;;14.70;63.70;;;;;;1033143;28;19980;-76
2021/04/21 00:57:42;;;;;;;;;;;14.70;63.90;;;;;;1037168;28;19906;-76
2021/04/21 00:58:13;;;;;;;;;;;14.70;63.80;;;;;;1042942;28;19909;-76
2021/04/21 00:59:01;;;;;;;;;;;14.60;64.10;;;;;;1045551;28;19916;-76
2021/04/21 00:59:51;;;;;;;;;;;14.60;64.30;;;;;;1045476;28;20304;-77
2021/04/21 01:00:24;;;;;;;;;;;14.60;64.40;;;;;;1045250;28;19918;-76
2021/04/21 01:00:55;;;;;;;;;;;14.60;64.40;;;;;;1045577;28;19909;-76
2021/04/21 01:01:28;;;;;;;;;;;14.60;64.50;;;;;;1045072;28;20211;-75
2021/04/21 01:02:00;;;;;;;;;;;14.60;64.70;;;;;;1045489;28;20243;-73
2021/04/21 01:02:34;;;;;;;;;;;14.50;65.00;;;;;;1043157;28;19909;-75
2021/04/21 01:03:05;;;;;;;;;;;14.50;65.00;;;;;;1045189;28;19920;-74
2021/04/21 01:03:36;;;;;;;;;;;14.50;65.10;;;;;;1052914;28;19994;-75
2021/04/21 01:04:09;;;;;;;;;;;14.50;65.30;;;;;;1053652;28;19931;-75
2021/04/21 01:04:41;;;;;;;;;;;14.50;65.40;;;;;;1053341;28;19915;-75
2021/04/21 01:05:13;;;;;;;;;;;14.50;65.30;;;;;;1048455;28;19912;-74
2021/04/21 01:05:46;;;;;;;;;;;14.60;65.20;;;;;;1043441;28;19915;-75
2021/04/21 01:06:20;;;;;;;;;;;14.50;64.80;;;;;;1045169;28;19908;-75
2021/04/21 01:06:52;;;;;;;;;;;14.50;65.10;;;;;;1044937;28;19905;-75
2021/04/21 01:07:25;;;;;;;;;;;14.50;64.80;;;;;;1040978;28;20283;-75
2021/04/21 01:07:58;;;;;;;;;;;14.50;64.80;;;;;;1039173;28;19916;-75
2021/04/21 01:08:33;;;;;;;;;;;14.50;65.00;;;;;;1042076;28;20342;-74
2021/04/21 01:09:06;;;;;;;;;;;14.50;65.20;;;;;;1045015;28;19916;-74
2021/04/21 01:09:39;;;;;;;;;;;14.40;65.30;;;;;;1045252;28;19955;-75
2021/04/21 01:10:11;;;;;;;;;;;14.40;65.40;;;;;;1045449;28;19908;-75
2021/04/21 01:10:44;;;;;;;;;;;14.40;65.40;;;;;;1045466;28;19915;-75
2021/04/21 01:11:20;;;;;;;;;;;14.40;65.50;;;;;;1045546;28;20242;-75
2021/04/21 01:11:54;;;;;;;;;;;14.30;65.60;;;;;;1045431;28;19905;-75
2021/04/21 01:12:26;;;;;;;;;;;14.30;65.70;;;;;;1045516;28;19905;-75
2021/04/21 01:12:59;;;;;;;;;;;14.30;65.60;;;;;;1053436;28;20000;-75
2021/04/21 01:13:35;;;;;;;;;;;14.30;65.70;;;;;;1053620;28;19912;-75
2021/04/21 01:14:08;;;;;;;;;;;14.30;65.80;;;;;;1053598;28;19995;-75
2021/04/21 01:14:40;;;;;;;;;;;14.30;65.90;;;;;;1050581;28;19915;-75
2021/04/21 01:15:14;;;;;;;;;;;14.30;66.00;;;;;;1045170;28;19940;-77
2021/04/21 01:15:47;;;;;;;;;;;14.30;66.10;;;;;;1045061;28;19920;-74
2021/04/21 01:16:20;;;;;;;;;;;14.30;66.30;;;;;;1036984;28;20007;-74
2021/04/21 01:16:59;;;;;;;;;;;14.30;66.30;;;;;;1032936;28;20431;-75
2021/04/21 01:17:32;;;;;;;;;;;14.30;66.00;;;;;;1035706;28;20247;-75
2021/04/21 01:18:04;;;;;;;;;;;14.30;66.00;;;;;;1042861;28;20350;-75
2021/04/21 01:18:36;;;;;;;;;;;14.30;66.00;;;;;;1041087;28;19909;-75
2021/04/21 01:19:12;;;;;;;;;;;14.30;66.10;;;;;;1037759;28;19921;-73
2021/04/21 01:19:55;;;;;;;;;;;14.30;66.00;;;;;;1045134;28;20359;-73
2021/04/21 01:20:30;;;;;;;;;;;14.40;65.80;;;;;;1041072;28;19910;-73
2021/04/21 01:21:06;;;;;;;;;;;14.40;65.80;;;;;;1048245;28;19909;-74
2021/04/21 01:21:45;;;;;;;;;;;14.40;65.70;;;;;;1049364;28;19912;-75
2021/04/21 01:22:29;;;;;;;;;;;14.40;65.50;;;;;;1045538;28;19909;-74
2021/04/21 01:23:11;;;;;;;;;;;14.30;65.60;;;;;;1036777;28;19909;-75
2021/04/21 01:24:00;;;;;;;;;;;14.30;65.90;;;;;;1037095;28;19920;-74
2021/04/21 01:24:49;;;;;;;;;;;14.30;65.90;;;;;;1045064;28;19999;-74
2021/04/21 01:25:27;;;;;;;;;;;14.30;66.00;;;;;;1049355;28;19940;-74
2021/04/21 01:26:16;;;;;;;;;;;14.20;65.90;;;;;;1049344;28;20329;-74
2021/04/21 01:26:57;;;;;;;;;;;14.20;66.00;;;;;;1041423;28;20331;-74
2021/04/21 01:27:47;;;;;;;;;;;14.20;66.00;;;;;;1041378;28;20317;-75
2021/04/21 01:28:20;;;;;;;;;;;14.20;66.00;;;;;;1041255;28;20408;-76
2021/04/21 01:28:52;;;;;;;;;;;14.20;66.10;;;;;;1044583;28;20338;-74
2021/04/21 01:29:26;;;;;;;;;;;14.20;66.00;;;;;;1045065;28;19976;-75
2021/04/21 01:29:57;;;;;;;;;;;14.20;66.20;;;;;;1043094;28;19909;-75
2021/04/21 01:30:29;;;;;;;;;;;14.20;66.40;;;;;;1045037;28;19913;-74
2021/04/21 01:31:01;;;;;;;;;;;14.20;66.30;;;;;;1040760;28;19909;-74
2021/04/21 01:31:33;;;;;;;;;;;14.20;66.20;;;;;;1041332;28;19966;-74
2021/04/21 01:32:16;;;;;;;;;;;14.30;66.30;;;;;;1041341;28;19996;-74
2021/04/21 01:32:48;;;;;;;;;;;14.20;66.30;;;;;;1043936;28;19932;-75
2021/04/21 01:33:20;;;;;;;;;;;14.10;66.50;;;;;;1044928;28;19913;-75
2021/04/21 01:33:52;;;;;;;;;;;14.10;66.60;;;;;;1040846;28;19920;-75
2021/04/21 01:34:24;;;;;;;;;;;14.10;66.70;;;;;;1041101;28;20231;-73
2021/04/21 01:34:56;;;;;;;;;;;14.10;66.70;;;;;;1041651;28;19909;-75
2021/04/21 01:35:28;;;;;;;;;;;14.10;66.90;;;;;;1048801;28;19916;-74
2021/04/21 01:36:06;;;;;;;;;;;14.10;66.90;;;;;;1053019;28;20385;-74
2021/04/21 01:36:37;;;;;;;;;;;14.10;66.90;;;;;;1050130;28;20353;-74
2021/04/21 01:37:09;;;;;;;;;;;14.10;66.80;;;;;;1050973;28;20337;-74
2021/04/21 01:37:41;;;;;;;;;;;14.10;66.80;;;;;;1045299;28;19917;-74
2021/04/21 01:38:13;;;;;;;;;;;14.00;67.00;;;;;;1045471;28;19909;-73
2021/04/21 01:38:46;;;;;;;;;;;14.00;67.20;;;;;;1045150;28;19905;-74
2021/04/21 01:39:17;;;;;;;;;;;14.00;67.30;;;;;;1045060;28;19920;-73
2021/04/21 01:40:03;;;;;;;;;;;13.90;67.40;;;;;;1044396;28;19947;-73
2021/04/21 01:40:39;;;;;;;;;;;13.90;67.60;;;;;;1045388;28;19916;-74
2021/04/21 01:41:15;;;;;;;;;;;13.90;67.80;;;;;;1049100;28;19915;-74
2021/04/21 01:41:49;;;;;;;;;;;13.80;67.70;;;;;;1049339;28;19909;-75
2021/04/21 01:42:21;;;;;;;;;;;13.90;67.80;;;;;;1049260;28;20293;-75
2021/04/21 01:42:54;;;;;;;;;;;13.90;67.90;;;;;;1046421;28;19904;-74
2021/04/21 01:43:28;;;;;;;;;;;13.90;67.80;;;;;;1045016;28;20335;-74
2021/04/21 01:44:12;;;;;;;;;;;13.80;67.90;;;;;;1044907;28;19948;-74
2021/04/21 01:44:46;;;;;;;;;;;13.80;68.00;;;;;;1038052;28;19983;-74
2021/04/21 01:45:19;;;;;;;;;;;13.80;68.10;;;;;;1040437;28;19909;-74
2021/04/21 01:45:52;;;;;;;;;;;13.80;68.10;;;;;;1039530;28;20263;-75
2021/04/21 01:46:24;;;;;;;;;;;13.80;68.00;;;;;;1041024;28;19917;-75
2021/04/21 01:47:02;;;;;;;;;;;14.00;67.70;;;;;;1049135;28;19928;-74
2021/04/21 01:47:34;;;;;;;;;;;13.90;67.40;;;;;;1047853;28;19951;-74
2021/04/21 01:48:24;;;;;;;;;;;13.90;67.40;;;;;;1049266;28;19905;-74
2021/04/21 01:49:02;;;;;;;;;;;13.90;67.30;;;;;;1045147;28;19987;-74
2021/04/21 01:49:35;;;;;;;;;;;14.00;67.60;;;;;;1045137;28;19908;-75
2021/04/21 01:50:07;;;;;;;;;;;13.90;67.50;;;;;;1049153;28;20238;-75
2021/04/21 01:50:38;;;;;;;;;;;13.90;67.60;;;;;;1050976;28;19962;-75
2021/04/21 01:51:21;;;;;;;;;;;13.90;67.60;;;;;;1053626;28;19915;-74
2021/04/21 01:52:01;;;;;;;;;;;13.90;67.70;;;;;;1045640;28;20257;-74
2021/04/21 01:52:35;;;;;;;;;;;13.90;67.80;;;;;;1040940;28;19920;-75
2021/04/21 01:53:06;;;;;;;;;;;13.80;67.80;;;;;;1040893;28;19970;-74
2021/04/21 01:53:42;;;;;;;;;;;13.80;68.00;;;;;;1042576;28;20377;-74
2021/04/21 01:54:15;;;;;;;;;;;13.80;68.00;;;;;;1045251;28;19940;-75
2021/04/21 01:54:46;;;;;;;;;;;13.70;68.10;;;;;;1045365;28;19905;-74
2021/04/21 01:55:21;;;;;;;;;;;13.80;68.20;;;;;;1045346;28;19905;-75
2021/04/21 01:55:52;;;;;;;;;;;13.80;68.20;;;;;;1045342;28;19905;-75
2021/04/21 01:56:38;;;;;;;;;;;13.80;68.30;;;;;;1045235;28;19904;-73
2021/04/21 01:57:12;;;;;;;;;;;13.80;68.30;;;;;;1045025;28;19947;-74
2021/04/21 01:58:08;;;;;;;;;;;13.80;68.20;;;;;;1045063;28;19939;-74
2021/04/21 01:58:39;;;;;;;;;;;13.80;68.10;;;;;;1040826;28;19913;-74
2021/04/21 01:59:29;;;;;;;;;;;13.80;68.10;;;;;;1045657;28;19904;-74
2021/04/21 02:00:10;;;;;;;;;;;13.90;68.10;;;;;;1045019;28;20294;-75
2021/04/21 02:00:44;;;;;;;;;;;13.90;67.90;;;;;;1038914;28;19910;-74
2021/04/21 02:01:44;;;;;;;;;;;13.90;67.90;;;;;;1035896;28;19909;-74
2021/04/21 02:02:24;;;;;;;;;;;13.90;67.70;;;;;;1036193;28;19959;-74
2021/04/21 02:02:59;;;;;;;;;;;13.80;67.80;;;;;;1046456;28;20359;-74
2021/04/21 02:03:36;;;;;;;;;;;13.80;67.90;;;;;;1044928;28;19909;-74
2021/04/21 02:04:12;;;;;;;;;;;13.80;68.10;;;;;;1043614;28;19970;-75
2021/04/21 02:04:58;;;;;;;;;;;13.80;68.10;;;;;;1046875;28;19909;-75
2021/04/21 02:05:37;;;;;;;;;;;13.70;68.10;;;;;;1044830;28;19912;-75
2021/04/21 02:06:26;;;;;;;;;;;13.80;68.10;;;;;;1040782;28;19909;-75
2021/04/21 02:07:17;;;;;;;;;;;13.80;67.90;;;;;;1044997;28;19987;-74
2021/04/21 02:08:00;;;;;;;;;;;13.90;67.90;;;;;;1029690;28;20364;-74
2021/04/21 02:08:49;;;;;;;;;;;13.80;68.00;;;;;;1032693;28;19932;-74
2021/04/21 02:09:20;;;;;;;;;;;13.80;68.20;;;;;;1048981;28;19919;-74
2021/04/21 02:10:03;;;;;;;;;;;13.70;68.30;;;;;;1051254;28;19915;-74
2021/04/21 02:10:53;;;;;;;;;;;13.80;68.30;;;;;;1049186;28;19916;-74
2021/04/21 02:11:25;;;;;;;;;;;13.80;68.00;;;;;;1045075;28;19916;-74
2021/04/21 02:12:10;;;;;;;;;;;13.80;68.10;;;;;;1044459;28;20306;-75
2021/04/21 02:12:51;;;;;;;;;;;13.80;68.30;;;;;;1040870;28;19963;-74
2021/04/21 02:13:31;;;;;;;;;;;13.70;68.40;;;;;;1044558;28;19939;-74
2021/04/21 02:14:20;;;;;;;;;;;13.70;68.60;;;;;;1044561;28;19916;-75
2021/04/21 02:14:51;;;;;;;;;;;13.60;68.70;;;;;;1045196;28;19909;-74
2021/04/21 02:15:28;;;;;;;;;;;13.60;68.90;;;;;;1051930;28;20308;-74
2021/04/21 02:15:59;;;;;;;;;;;13.70;68.80;;;;;;1053287;28;19908;-74
2021/04/21 02:16:46;;;;;;;;;;;13.80;68.60;;;;;;1047056;28;19908;-74
2021/04/21 02:17:38;;;;;;;;;;;13.70;68.60;;;;;;1050193;28;19915;-74
2021/04/21 02:18:21;;;;;;;;;;;13.70;68.60;;;;;;1053290;28;20310;-74
2021/04/21 02:18:52;;;;;;;;;;;13.70;68.70;;;;;;1048026;28;19912;-74
2021/04/21 02:19:46;;;;;;;;;;;13.60;68.70;;;;;;1044986;28;19959;-74
2021/04/21 02:20:29;;;;;;;;;;;13.70;69.20;;;;;;1034984;28;19924;-74
2021/04/21 02:21:00;;;;;;;;;;;13.80;68.80;;;;;;1046537;28;19920;-74
2021/04/21 02:21:39;;;;;;;;;;;13.70;68.60;;;;;;1049049;28;19982;-74
2021/04/21 02:22:27;;;;;;;;;;;13.70;68.70;;;;;;1052064;28;20001;-74
2021/04/21 02:22:58;;;;;;;;;;;13.60;68.70;;;;;;1045767;28;20000;-75
2021/04/21 02:23:33;;;;;;;;;;;13.60;68.90;;;;;;1053228;28;19908;-75
2021/04/21 02:24:04;;;;;;;;;;;13.60;69.60;;;;;;1047998;28;19912;-74
2021/04/21 02:24:56;;;;;;;;;;;13.70;69.00;;;;;;1048822;28;19909;-75
2021/04/21 02:25:27;;;;;;;;;;;13.70;69.10;;;;;;1042688;28;19913;-74
2021/04/21 02:25:58;;;;;;;;;;;13.70;69.10;;;;;;1052249;28;19908;-75
2021/04/21 02:27:01;;;;;;;;;;;13.70;69.10;;;;;;1053420;28;20280;-75
2021/04/21 02:27:32;;;;;;;;;;;13.70;69.10;;;;;;1028121;28;19925;-75
2021/04/21 02:28:16;;;;;;;;;;;13.60;69.20;;;;;;1028654;28;19906;-75
2021/04/21 02:29:00;;;;;;;;;;;13.60;69.30;;;;;;1043592;28;19932;-75
2021/04/21 02:29:36;;;;;;;;;;;13.60;69.50;;;;;;1048029;28;19916;-74
2021/04/21 02:30:13;;;;;;;;;;;13.60;69.60;;;;;;1049053;28;19916;-75
2021/04/21 02:31:02;;;;;;;;;;;13.50;69.60;;;;;;1049224;28;20270;-75
2021/04/21 02:31:52;;;;;;;;;;;13.50;69.70;;;;;;1051115;28;19948;-74
2021/04/21 02:32:37;;;;;;;;;;;13.50;69.70;;;;;;1047953;28;19921;-75
2021/04/21 02:33:11;;;;;;;;;;;13.60;69.80;;;;;;1044921;28;19923;-75
2021/04/21 02:34:01;;;;;;;;;;;13.60;69.60;;;;;;1040874;28;20433;-76
2021/04/21 02:34:37;;;;;;;;;;;13.50;69.60;;;;;;1044913;28;19909;-75
2021/04/21 02:35:13;;;;;;;;;;;13.60;69.70;;;;;;1045023;28;19981;-75
2021/04/21 02:35:47;;;;;;;;;;;13.60;69.60;;;;;;1044919;28;19992;-76
2021/04/21 02:36:31;;;;;;;;;;;13.60;69.40;;;;;;1042882;28;19992;-76
2021/04/21 02:37:11;;;;;;;;;;;13.60;69.40;;;;;;1048624;28;19912;-76
2021/04/21 02:37:54;;;;;;;;;;;13.60;69.50;;;;;;1056688;28;20246;-76
2021/04/21 02:38:25;;;;;;;;;;;13.60;69.50;;;;;;1052401;28;20360;-74
2021/04/21 02:39:25;;;;;;;;;;;13.60;69.60;;;;;;1046362;28;20301;-76
2021/04/21 02:40:14;;;;;;;;;;;13.60;69.60;;;;;;1020666;29;19922;-75
2021/04/21 02:40:55;;;;;;;;;;;13.60;69.80;;;;;;1046063;28;20438;-75
2021/04/21 02:41:29;;;;;;;;;;;13.50;69.70;;;;;;1045860;28;19908;-75
2021/04/21 02:42:04;;;;;;;;;;;13.50;69.80;;;;;;1049309;28;19905;-75
2021/04/21 02:42:59;;;;;;;;;;;13.60;69.80;;;;;;1046354;28;19992;-74
2021/04/21 02:43:36;;;;;;;;;;;13.60;69.80;;;;;;1053822;28;19919;-76
2021/04/21 02:44:10;;;;;;;;;;;13.60;69.70;;;;;;1049006;28;19909;-76
2021/04/21 02:45:00;;;;;;;;;;;13.60;69.60;;;;;;1049090;28;19991;-78
2021/04/21 02:45:40;;;;;;;;;;;13.50;69.60;;;;;;1042210;28;19924;-75
2021/04/21 02:46:26;;;;;;;;;;;13.50;69.80;;;;;;1040952;28;19916;-76
2021/04/21 02:46:57;;;;;;;;;;;13.50;69.90;;;;;;1041002;28;20255;-76
2021/04/21 02:47:28;;;;;;;;;;;13.50;69.90;;;;;;1041349;28;20335;-75
2021/04/21 02:48:06;;;;;;;;;;;13.50;69.90;;;;;;1041851;28;19968;-76
2021/04/21 02:48:41;;;;;;;;;;;13.50;69.90;;;;;;1047445;28;19944;-75
2021/04/21 02:49:15;;;;;;;;;;;13.50;69.90;;;;;;1044813;28;19913;-76
2021/04/21 02:49:55;;;;;;;;;;;13.50;69.80;;;;;;1044168;28;19917;-76
2021/04/21 02:50:47;;;;;;;;;;;13.50;69.80;;;;;;1051349;28;20467;-75
2021/04/21 02:51:30;;;;;;;;;;;13.50;69.90;;;;;;1053223;28;19961;-75
2021/04/21 02:52:01;;;;;;;;;;;13.50;70.00;;;;;;1052373;28;19904;-75
2021/04/21 02:52:38;;;;;;;;;;;13.50;70.00;;;;;;1040867;28;19905;-75
2021/04/21 02:53:21;;;;;;;;;;;13.40;70.00;;;;;;1044009;28;19944;-75
2021/04/21 02:54:09;;;;;;;;;;;13.50;69.90;;;;;;1040971;28;20248;-76
2021/04/21 02:54:40;;;;;;;;;;;13.50;70.00;;;;;;1045589;28;19944;-76
2021/04/21 02:55:35;;;;;;;;;;;13.60;69.90;;;;;;1046042;28;19909;-76
2021/04/21 02:56:17;;;;;;;;;;;13.60;69.80;;;;;;1037859;28;19937;-77
2021/04/21 02:56:56;;;;;;;;;;;13.60;70.20;;;;;;1041802;28;19949;-76
2021/04/21 02:57:36;;;;;;;;;;;13.60;69.50;;;;;;1036575;28;19914;-75
2021/04/21 02:58:08;;;;;;;;;;;13.60;69.60;;;;;;1041867;28;19905;-75
2021/04/21 02:58:59;;;;;;;;;;;13.70;69.60;;;;;;1048452;28;19905;-75
2021/04/21 02:59:30;;;;;;;;;;;13.80;69.30;;;;;;1040753;28;19971;-75
2021/04/21 03:00:12;;;;;;;;;;;13.80;69.20;;;;;;1036174;28;19905;-76
2021/04/21 03:00:52;;;;;;;;;;;13.70;69.20;;;;;;1040808;28;19935;-75
2021/04/21 03:01:23;;;;;;;;;;;13.70;69.30;;;;;;1040959;28;19939;-75
2021/04/21 03:01:57;;;;;;;;;;;13.70;69.40;;;;;;1047919;28;20292;-75
2021/04/21 03:02:41;;;;;;;;;;;13.60;69.30;;;;;;1049067;28;20227;-76
2021/04/21 03:03:30;;;;;;;;;;;13.60;69.40;;;;;;1050710;28;20320;-77
2021/04/21 03:04:08;;;;;;;;;;;13.60;69.30;;;;;;1044907;28;19917;-77
2021/04/21 03:04:50;;;;;;;;;;;13.60;69.40;;;;;;1040731;28;20448;-77
2021/04/21 03:05:26;;;;;;;;;;;13.60;69.50;;;;;;1044396;28;19908;-77
2021/04/21 03:06:14;;;;;;;;;;;13.60;69.60;;;;;;1047264;28;19915;-76
2021/04/21 03:06:48;;;;;;;;;;;13.60;69.60;;;;;;1044830;28;19927;-77
2021/04/21 03:07:37;;;;;;;;;;;13.60;69.50;;;;;;1041020;28;20051;-76
2021/04/21 03:08:17;;;;;;;;;;;13.60;69.50;;;;;;1042400;28;19913;-75
2021/04/21 03:08:52;;;;;;;;;;;13.60;69.60;;;;;;1040782;28;20432;-77
2021/04/21 03:09:59;;;;;;;;;;;13.60;69.60;;;;;;1036860;28;19920;-76
2021/04/21 03:10:33;;;;;;;;;;;13.60;69.70;;;;;;1042048;28;19916;-77
2021/04/21 03:11:04;;;;;;;;;;;13.60;69.80;;;;;;1041870;28;20354;-77
2021/04/21 03:11:36;;;;;;;;;;;13.60;69.80;;;;;;1040614;28;19939;-76
2021/04/21 03:12:08;;;;;;;;;;;13.60;69.70;;;;;;1040607;28;19909;-76
2021/04/21 03:12:44;;;;;;;;;;;13.60;69.70;;;;;;1040669;28;19909;-76
2021/04/21 03:13:17;;;;;;;;;;;13.60;69.90;;;;;;1040667;28;19913;-76
2021/04/21 03:13:59;;;;;;;;;;;13.60;69.90;;;;;;1041396;28;19955;-76
2021/04/21 03:14:31;;;;;;;;;;;13.50;69.90;;;;;;1044367;28;19909;-77
2021/04/21 03:15:05;;;;;;;;;;;13.50;70.10;;;;;;1049808;28;19912;-76
2021/04/21 03:15:39;;;;;;;;;;;13.50;70.20;;;;;;1049939;28;19915;-76
2021/04/21 03:16:13;;;;;;;;;;;13.50;70.40;;;;;;1049586;28;19994;-76
2021/04/21 03:16:58;;;;;;;;;;;13.50;70.40;;;;;;1047138;28;19913;-76
2021/04/21 03:17:29;;;;;;;;;;;13.50;70.40;;;;;;1049782;28;19908;-76
2021/04/21 03:18:02;;;;;;;;;;;13.50;70.50;;;;;;1053280;28;19908;-76
2021/04/21 03:18:33;;;;;;;;;;;13.50;70.50;;;;;;1049963;28;19914;-76
2021/04/21 03:19:06;;;;;;;;;;;13.50;70.50;;;;;;1049854;28;20353;-76
2021/04/21 03:19:42;;;;;;;;;;;13.60;70.50;;;;;;1047473;28;19912;-76
2021/04/21 03:20:18;;;;;;;;;;;13.50;70.40;;;;;;1037325;28;19920;-76
2021/04/21 03:21:12;;;;;;;;;;;13.60;70.30;;;;;;1039269;28;20429;-76
2021/04/21 03:21:46;;;;;;;;;;;13.60;70.10;;;;;;1045461;28;19908;-76
2021/04/21 03:22:18;;;;;;;;;;;13.60;70.00;;;;;;1049815;28;19905;-76
2021/04/21 03:22:55;;;;;;;;;;;13.60;70.00;;;;;;1051977;28;19920;-76
2021/04/21 03:23:27;;;;;;;;;;;13.70;69.90;;;;;;1047879;28;19923;-77
2021/04/21 03:24:00;;;;;;;;;;;13.70;69.90;;;;;;1046830;28;20265;-76
2021/04/21 03:24:34;;;;;;;;;;;13.70;70.00;;;;;;1049733;28;20354;-76
2021/04/21 03:25:16;;;;;;;;;;;13.70;69.80;;;;;;1049558;28;20038;-76
2021/04/21 03:25:49;;;;;;;;;;;13.60;69.80;;;;;;1049532;28;19919;-76
2021/04/21 03:26:20;;;;;;;;;;;13.60;69.90;;;;;;1047282;28;19912;-76
2021/04/21 03:26:54;;;;;;;;;;;13.60;70.00;;;;;;1043378;28;19909;-76
2021/04/21 03:27:28;;;;;;;;;;;13.60;70.00;;;;;;1042441;28;19909;-76
2021/04/21 03:28:01;;;;;;;;;;;13.60;70.10;;;;;;1049655;28;19928;-76
2021/04/21 03:28:33;;;;;;;;;;;13.60;70.20;;;;;;1051234;28;19912;-77
2021/04/21 03:29:07;;;;;;;;;;;13.60;70.30;;;;;;1049750;28;19915;-76
2021/04/21 03:29:40;;;;;;;;;;;13.60;70.30;;;;;;1044534;28;20010;-76
2021/04/21 03:30:12;;;;;;;;;;;13.60;70.30;;;;;;1041443;28;19909;-76
2021/04/21 03:30:44;;;;;;;;;;;13.60;70.30;;;;;;1042637;28;19913;-76
2021/04/21 03:31:16;;;;;;;;;;;13.60;70.30;;;;;;1045771;28;19932;-76
2021/04/21 03:31:48;;;;;;;;;;;13.50;70.30;;;;;;1045794;28;19919;-76
2021/04/21 03:32:30;;;;;;;;;;;13.50;70.40;;;;;;1045621;28;20007;-76
2021/04/21 03:33:08;;;;;;;;;;;13.50;70.50;;;;;;1045730;28;19943;-76
2021/04/21 03:33:47;;;;;;;;;;;13.50;70.60;;;;;;1041136;28;19909;-76